Chennai, India
Current Conditions -  °F | °C
As of 7:40 PM on Friday 24 Oct 2014 (Local Time) from VOMM Reporting Station
Few Clouds Few Clouds  
Wind Chill: 79°   Ceiling: Unl
Heat Index: 83°   Visibility: 4mi
Dew Point: 77°   Wind: 2mph
Humidity: 94%   Direction: 340°NNW
Pressure: 29.85"   Gusts: NA
Location:  13.06°N, 80.25°E
Report Text: VOMM 241440Z 34002KT 6000 FEW020 26/25 Q1011 NOSIG
Loading
Personal Weather Stations






























Interactive Weather Map New forecast layout! Learn more

10-Day Weather Forecast

Advertisements
Track Severe Weather on mobile